Time;durP1;ratioP1;P1;durP2;ratioP2;P2;SDS_P1;SDS_P2;PMS_P1;PMS_P2;Temp;Humidity;BMP_temperature;BMP_pressure;BME280_temperature;BME280_humidity;BME280_pressure;Samples;Min_cycle;Max_cycle;Signal;HPM_P1;HPM_P2
2022/06/25 00:01:08;;;;;;;5.87;4.20;;;22.20;99.90;;;;;;5055191;23;20225;-67
2022/06/25 00:03:34;;;;;;;4.23;3.80;;;22.30;99.90;;;;;;5052635;28;20269;-68
2022/06/25 00:05:59;;;;;;;6.10;4.53;;;22.30;99.90;;;;;;5052612;28;20451;-70
2022/06/25 00:08:25;;;;;;;4.60;4.20;;;22.20;99.90;;;;;;5052681;28;20165;-70
2022/06/25 00:10:52;;;;;;;4.90;4.50;;;22.30;99.90;;;;;;5052364;28;20641;-68
2022/06/25 00:13:18;;;;;;;4.40;4.00;;;22.30;99.90;;;;;;5052824;28;20539;-67
2022/06/25 00:15:44;;;;;;;6.53;5.20;;;22.30;99.90;;;;;;5052593;28;20499;-68
2022/06/25 00:18:09;;;;;;;5.97;5.10;;;22.30;99.90;;;;;;5052733;28;20460;-68
2022/06/25 00:20:35;;;;;;;6.80;5.47;;;22.30;99.90;;;;;;5052465;28;20428;-68
2022/06/25 00:23:01;;;;;;;6.13;5.53;;;22.20;99.90;;;;;;5052534;28;20171;-68
2022/06/25 00:25:27;;;;;;;6.53;6.00;;;22.00;99.90;;;;;;5052599;28;20174;-68
2022/06/25 00:27:52;;;;;;;5.60;5.07;;;22.00;99.90;;;;;;5052614;28;20181;-68
2022/06/25 00:30:18;;;;;;;5.87;5.10;;;22.00;99.90;;;;;;5052360;28;20453;-69
2022/06/25 00:32:44;;;;;;;6.70;6.20;;;22.00;99.90;;;;;;5052251;28;20548;-68
2022/06/25 00:35:10;;;;;;;5.57;5.00;;;21.90;99.90;;;;;;5052517;28;20177;-69
2022/06/25 00:37:36;;;;;;;6.70;6.07;;;21.90;99.90;;;;;;5052481;28;20499;-68
2022/06/25 00:40:02;;;;;;;6.30;5.80;;;21.90;99.90;;;;;;5054001;28;20519;-69
2022/06/25 00:42:27;;;;;;;8.43;6.97;;;21.80;99.90;;;;;;5055917;28;20237;-69
2022/06/25 00:44:55;;;;;;;9.20;8.40;;;21.80;99.90;;;;;;5055363;28;20440;-69
2022/06/25 00:47:21;;;;;;;10.70;9.50;;;21.70;99.90;;;;;;5054686;28;20259;-69
2022/06/25 00:49:47;;;;;;;11.67;10.50;;;21.50;99.90;;;;;;5053320;28;20854;-69
2022/06/25 00:52:15;;;;;;;13.03;11.37;;;21.40;99.90;;;;;;5051975;28;20449;-69
2022/06/25 00:54:53;;;;;;;13.47;12.20;;;21.30;99.90;;;;;;5051889;28;20162;-69
2022/06/25 00:57:28;;;;;;;17.40;15.73;;;21.30;99.90;;;;;;5052305;28;20565;-69
2022/06/25 01:00:08;;;;;;;16.97;14.70;;;21.30;99.90;;;;;;5051703;28;21015;-69
2022/06/25 01:02:35;;;;;;;21.33;18.30;;;21.20;99.90;;;;;;5034236;28;20449;-69
2022/06/25 01:05:05;;;;;;;17.67;15.47;;;21.10;99.90;;;;;;5033864;28;20430;-67
2022/06/25 01:07:30;;;;;;;19.73;17.63;;;21.10;99.90;;;;;;5051989;28;20491;-70
2022/06/25 01:09:56;;;;;;;19.47;17.40;;;21.00;99.90;;;;;;5033785;28;20463;-70
2022/06/25 01:12:23;;;;;;;19.63;17.23;;;21.00;99.90;;;;;;5051865;28;20171;-68
2022/06/25 01:15:09;;;;;;;22.97;16.47;;;21.00;99.90;;;;;;5051653;28;20420;-68
2022/06/25 01:17:41;;;;;;;20.50;18.33;;;20.90;99.90;;;;;;5051623;28;20418;-68
2022/06/25 01:20:07;;;;;;;19.40;17.27;;;20.90;99.90;;;;;;5051756;28;20436;-68
2022/06/25 01:22:33;;;;;;;17.70;16.03;;;20.90;99.90;;;;;;5051301;28;20403;-68
2022/06/25 01:24:59;;;;;;;18.47;16.57;;;20.90;99.90;;;;;;5049297;28;20984;-68
2022/06/25 01:27:25;;;;;;;19.90;17.30;;;20.80;99.90;;;;;;5050844;28;20177;-68
2022/06/25 01:29:51;;;;;;;18.97;16.47;;;20.80;99.90;;;;;;5051219;28;20790;-68
2022/06/25 01:32:16;;;;;;;21.50;16.80;;;20.80;99.90;;;;;;5051196;28;20197;-68
2022/06/25 01:34:42;;;;;;;17.53;15.07;;;20.80;99.90;;;;;;5051300;28;20249;-69
2022/06/25 01:37:07;;;;;;;16.53;14.83;;;20.70;99.90;;;;;;5051513;28;20510;-69
2022/06/25 01:39:33;;;;;;;15.53;13.63;;;20.70;99.90;;;;;;5051202;28;20191;-68
2022/06/25 01:41:59;;;;;;;14.53;13.03;;;20.70;99.90;;;;;;5051274;28;20168;-69
2022/06/25 01:44:24;;;;;;;13.10;10.43;;;20.70;99.90;;;;;;5051394;28;20211;-69
2022/06/25 01:46:50;;;;;;;14.27;11.90;;;20.70;99.90;;;;;;5051273;28;20257;-68
2022/06/25 01:49:16;;;;;;;15.03;12.37;;;20.60;99.90;;;;;;5051491;28;20634;-68
2022/06/25 01:51:41;;;;;;;14.23;12.17;;;20.60;99.90;;;;;;5051060;28;20208;-68
2022/06/25 01:54:08;;;;;;;13.27;10.97;;;20.50;99.90;;;;;;5051198;28;20431;-69
2022/06/25 01:56:34;;;;;;;12.87;11.20;;;20.50;99.90;;;;;;5051355;28;20497;-68
2022/06/25 01:59:00;;;;;;;11.20;9.93;;;20.50;99.90;;;;;;5051347;28;20170;-68
2022/06/25 02:01:25;;;;;;;13.10;11.70;;;20.50;99.90;;;;;;5051022;28;20222;-68
2022/06/25 02:03:51;;;;;;;12.17;10.97;;;20.50;99.90;;;;;;5051288;28;20584;-68
2022/06/25 02:06:17;;;;;;;14.40;11.50;;;20.50;99.90;;;;;;5050970;28;20180;-68
2022/06/25 02:08:42;;;;;;;12.70;11.23;;;20.40;99.90;;;;;;5051043;28;20172;-68
2022/06/25 02:11:09;;;;;;;12.00;10.53;;;20.40;99.90;;;;;;5051112;28;20515;-69
2022/06/25 02:13:35;;;;;;;11.70;10.50;;;20.40;99.90;;;;;;5054589;28;20170;-68
2022/06/25 02:16:02;;;;;;;15.47;13.13;;;20.40;99.90;;;;;;5054922;28;20415;-68
2022/06/25 02:18:27;;;;;;;13.50;12.10;;;20.40;99.90;;;;;;5055451;28;20168;-68
2022/06/25 02:20:54;;;;;;;13.43;12.10;;;20.40;99.90;;;;;;5054987;28;20449;-69
2022/06/25 02:23:21;;;;;;;11.30;10.20;;;20.40;99.90;;;;;;5054685;28;20184;-68
2022/06/25 02:25:47;;;;;;;10.73;9.73;;;20.40;99.90;;;;;;5054908;28;20417;-68
2022/06/25 02:28:14;;;;;;;15.93;11.20;;;20.40;99.90;;;;;;5058634;28;20421;-68
2022/06/25 02:30:40;;;;;;;12.00;10.40;;;20.30;99.90;;;;;;5061426;28;20618;-68
2022/06/25 02:33:11;;;;;;;15.73;11.87;;;20.30;99.90;;;;;;5054484;28;20767;-68
2022/06/25 02:35:37;;;;;;;13.13;11.70;;;20.30;99.90;;;;;;5054350;28;20177;-68
2022/06/25 02:38:03;;;;;;;14.70;12.10;;;20.30;99.90;;;;;;5054643;28;20834;-68
2022/06/25 02:40:28;;;;;;;13.00;11.70;;;20.30;99.90;;;;;;5054337;28;20433;-68
2022/06/25 02:42:54;;;;;;;12.73;10.87;;;20.30;99.90;;;;;;5054305;28;20175;-68
2022/06/25 02:45:19;;;;;;;12.63;11.30;;;20.30;99.90;;;;;;5054046;28;20175;-68
2022/06/25 02:47:45;;;;;;;13.30;12.00;;;20.20;99.90;;;;;;5054693;28;20183;-68
2022/06/25 02:50:11;;;;;;;13.63;12.13;;;20.20;99.90;;;;;;5054016;28;20231;-69
2022/06/25 02:52:37;;;;;;;12.83;11.67;;;20.20;99.90;;;;;;5054507;28;20178;-68
2022/06/25 02:55:03;;;;;;;11.70;10.57;;;20.20;99.90;;;;;;5054424;28;20455;-68
2022/06/25 03:00:13;;;;;;;14.37;11.73;;;20.20;99.90;;;;;;5054783;28;20465;-69
2022/06/25 03:02:39;;;;;;;13.33;11.10;;;20.20;99.90;;;;;;5054717;28;20896;-69
2022/06/25 03:05:05;;;;;;;13.87;12.47;;;20.20;99.90;;;;;;5054285;28;20423;-68
2022/06/25 03:07:31;;;;;;;10.73;9.70;;;20.30;99.90;;;;;;5054184;28;20383;-68
2022/06/25 03:09:56;;;;;;;12.90;11.57;;;20.20;99.90;;;;;;5053952;28;20508;-68
2022/06/25 03:12:22;;;;;;;10.40;9.40;;;20.30;99.90;;;;;;5053834;28;20650;-68
2022/06/25 03:14:47;;;;;;;12.83;11.63;;;20.30;99.90;;;;;;5053646;28;20201;-69
2022/06/25 03:17:13;;;;;;;13.13;11.47;;;20.40;99.90;;;;;;5053840;28;20176;-68
2022/06/25 03:19:38;;;;;;;14.47;12.00;;;20.40;99.90;;;;;;5053596;28;20168;-68
2022/06/25 03:22:04;;;;;;;13.43;12.03;;;20.40;99.90;;;;;;5053621;28;20197;-69
2022/06/25 03:24:30;;;;;;;14.07;10.80;;;20.50;99.90;;;;;;5053211;28;20175;-68
2022/06/25 03:26:55;;;;;;;11.80;10.60;;;20.50;99.90;;;;;;5036109;28;20267;-68
2022/06/25 03:29:21;;;;;;;12.40;11.20;;;20.50;99.90;;;;;;5054052;28;20176;-69
2022/06/25 03:31:46;;;;;;;11.33;10.23;;;20.60;99.90;;;;;;5053358;28;20255;-69
2022/06/25 03:34:12;;;;;;;11.80;10.60;;;20.60;99.90;;;;;;5053416;28;20259;-68
2022/06/25 03:36:37;;;;;;;12.63;11.33;;;20.70;99.90;;;;;;5053251;28;20171;-69
2022/06/25 03:39:04;;;;;;;11.67;10.47;;;20.70;99.90;;;;;;5035605;28;20204;-68
2022/06/25 03:41:32;;;;;;;12.87;11.57;;;20.80;99.90;;;;;;5053091;28;20188;-68
2022/06/25 03:44:02;;;;;;;12.27;11.17;;;20.80;99.90;;;;;;5053135;28;20822;-68
2022/06/25 03:46:28;;;;;;;13.43;11.70;;;20.90;99.90;;;;;;5054337;28;20444;-68
2022/06/25 03:48:54;;;;;;;14.97;12.57;;;20.90;99.90;;;;;;5054398;28;20452;-70
2022/06/25 03:51:19;;;;;;;14.30;11.50;;;21.00;99.90;;;;;;5054706;28;20685;-69
2022/06/25 03:53:45;;;;;;;12.30;10.30;;;21.10;99.90;;;;;;5053888;28;20187;-68
2022/06/25 03:56:11;;;;;;;11.77;10.57;;;21.00;99.90;;;;;;5052796;28;20172;-68
2022/06/25 03:58:36;;;;;;;9.73;8.77;;;21.00;99.90;;;;;;5052959;28;20643;-69
2022/06/25 04:01:02;;;;;;;13.77;10.60;;;21.00;99.90;;;;;;5052809;28;20457;-69
2022/06/25 04:03:27;;;;;;;11.07;10.10;;;21.00;99.90;;;;;;5052838;28;20165;-69
2022/06/25 04:05:53;;;;;;;13.83;11.00;;;21.00;99.90;;;;;;5052703;28;20174;-68
2022/06/25 04:08:18;;;;;;;11.83;10.80;;;21.10;99.90;;;;;;5052869;28;20228;-68
2022/06/25 04:10:44;;;;;;;13.53;11.33;;;21.20;99.90;;;;;;5052630;28;20560;-69
2022/06/25 04:13:10;;;;;;;12.63;11.53;;;21.30;99.90;;;;;;5052599;28;20176;-68
2022/06/25 04:15:36;;;;;;;12.73;11.33;;;21.40;99.90;;;;;;5058329;28;20168;-68
2022/06/25 04:18:03;;;;;;;11.80;10.70;;;21.50;99.90;;;;;;5058129;28;20236;-68
2022/06/25 04:20:29;;;;;;;10.90;9.90;;;21.70;99.90;;;;;;5052589;28;20436;-68
2022/06/25 04:22:55;;;;;;;11.97;9.90;;;22.10;99.90;;;;;;5052453;28;20891;-69
2022/06/25 04:25:20;;;;;;;10.87;9.87;;;22.60;99.90;;;;;;5052235;28;20264;-69
2022/06/25 04:30:30;;;;;;;11.73;10.73;;;23.00;99.90;;;;;;5052610;28;20216;-69
2022/06/25 04:32:56;;;;;;;10.93;9.83;;;22.80;99.90;;;;;;5052288;28;20409;-69
2022/06/25 04:35:21;;;;;;;10.77;9.70;;;22.90;99.90;;;;;;5051798;28;20159;-69
2022/06/25 04:37:47;;;;;;;11.00;9.90;;;22.80;99.90;;;;;;5052094;28;20190;-68
2022/06/25 04:40:13;;;;;;;12.37;10.77;;;23.00;99.90;;;;;;5051962;28;20190;-68
2022/06/25 04:42:38;;;;;;;12.07;10.87;;;22.80;99.90;;;;;;5052497;28;20262;-68
2022/06/25 04:45:04;;;;;;;9.93;8.93;;;22.70;99.90;;;;;;5051674;28;20241;-68
2022/06/25 04:47:30;;;;;;;11.30;10.30;;;22.30;99.90;;;;;;5052171;28;20236;-69
2022/06/25 04:49:55;;;;;;;11.93;10.60;;;22.50;99.90;;;;;;5051995;28;20818;-69
2022/06/25 04:52:21;;;;;;;16.17;11.77;;;22.40;99.90;;;;;;5051955;28;20169;-69
2022/06/25 04:54:46;;;;;;;11.70;10.60;;;22.30;99.90;;;;;;5051850;28;20170;-69
2022/06/25 04:57:12;;;;;;;10.60;9.70;;;22.20;99.90;;;;;;5051766;28;20234;-69
2022/06/25 04:59:37;;;;;;;11.93;10.10;;;22.40;99.90;;;;;;5051532;28;20603;-69
2022/06/25 05:02:03;;;;;;;11.83;10.20;;;22.50;99.90;;;;;;5051828;28;20163;-69
2022/06/25 05:04:29;;;;;;;11.33;10.33;;;22.80;99.90;;;;;;5051641;28;20174;-69
2022/06/25 05:06:54;;;;;;;11.77;10.57;;;22.90;99.90;;;;;;5052031;28;20193;-69
2022/06/25 05:09:20;;;;;;;10.30;9.20;;;23.90;99.90;;;;;;5051877;28;20208;-69
2022/06/25 05:11:45;;;;;;;10.47;8.97;;;24.20;99.90;;;;;;5051565;28;20245;-69
2022/06/25 05:14:11;;;;;;;10.60;9.60;;;24.20;99.90;;;;;;5051589;28;20662;-69
2022/06/25 05:16:36;;;;;;;10.70;9.67;;;24.50;99.90;;;;;;5051938;28;20540;-69
2022/06/25 05:19:02;;;;;;;10.53;8.87;;;25.10;99.90;;;;;;5051682;28;20167;-69
2022/06/25 05:21:28;;;;;;;11.03;10.00;;;25.80;99.90;;;;;;5051747;28;20669;-69
2022/06/25 05:23:53;;;;;;;12.37;11.33;;;26.00;99.90;;;;;;5051455;28;20174;-68
2022/06/25 05:26:19;;;;;;;11.13;10.13;;;26.30;99.90;;;;;;5051549;28;20645;-69
2022/06/25 05:28:44;;;;;;;10.83;9.73;;;26.20;99.90;;;;;;5051521;28;20224;-69
2022/06/25 05:31:10;;;;;;;10.67;9.63;;;26.20;99.90;;;;;;5051330;28;20202;-68
2022/06/25 05:33:36;;;;;;;10.43;9.60;;;25.80;99.90;;;;;;5033526;28;20170;-69
2022/06/25 05:36:02;;;;;;;9.50;8.60;;;25.80;99.90;;;;;;5051094;28;20405;-68
2022/06/25 05:38:27;;;;;;;13.87;9.07;;;26.30;99.90;;;;;;5051492;28;20515;-68
2022/06/25 05:40:54;;;;;;;11.03;10.10;;;25.80;99.90;;;;;;5051397;28;20425;-69
2022/06/25 05:43:19;;;;;;;10.13;9.20;;;26.00;99.90;;;;;;5050937;28;20581;-68
2022/06/25 05:45:45;;;;;;;9.93;9.03;;;26.10;99.90;;;;;;5051990;28;20500;-68
2022/06/25 05:48:10;;;;;;;9.40;8.40;;;26.40;99.90;;;;;;5055121;28;20540;-69
2022/06/25 05:50:36;;;;;;;9.60;8.80;;;26.60;99.90;;;;;;5055188;28;20230;-68
2022/06/25 05:53:02;;;;;;;9.60;8.70;;;26.90;99.90;;;;;;5055409;28;20175;-69
2022/06/25 05:55:27;;;;;;;9.70;8.83;;;26.80;99.90;;;;;;5055067;28;20664;-69
2022/06/25 05:57:53;;;;;;;9.10;8.27;;;27.00;99.90;;;;;;5055367;28;20159;-69
2022/06/25 06:00:19;;;;;;;9.43;8.40;;;27.00;99.90;;;;;;5078007;22;20575;-68
2022/06/25 06:02:45;;;;;;;9.87;9.07;;;26.90;99.90;;;;;;5053159;28;20191;-67
2022/06/25 06:05:11;;;;;;;9.70;8.90;;;26.30;99.90;;;;;;5054605;28;20198;-68
2022/06/25 06:07:37;;;;;;;9.60;8.90;;;26.80;99.90;;;;;;5054927;28;20217;-67
2022/06/25 06:10:04;;;;;;;10.10;9.13;;;27.70;99.90;;;;;;5054734;28;20475;-69
2022/06/25 06:12:29;;;;;;;9.20;8.33;;;27.50;99.90;;;;;;5036652;28;20942;-68
2022/06/25 06:14:55;;;;;;;9.77;9.03;;;27.30;99.90;;;;;;5036733;28;20397;-68
2022/06/25 06:17:21;;;;;;;9.37;8.53;;;27.50;99.90;;;;;;5054987;28;20167;-68
2022/06/25 06:19:46;;;;;;;9.50;8.60;;;28.30;99.90;;;;;;5056904;28;20170;-69
2022/06/25 06:22:12;;;;;;;9.00;8.30;;;28.30;99.90;;;;;;5057238;28;20194;-68
2022/06/25 06:24:38;;;;;;;8.90;8.20;;;28.80;99.90;;;;;;5057994;28;20199;-69
2022/06/25 06:27:04;;;;;;;9.70;8.80;;;29.00;99.90;;;;;;5057379;28;20220;-68
2022/06/25 06:29:29;;;;;;;9.43;8.70;;;28.40;99.90;;;;;;5054884;28;20175;-69
2022/06/25 06:31:55;;;;;;;10.00;9.17;;;27.40;99.90;;;;;;5054716;28;20758;-68
2022/06/25 06:34:21;;;;;;;8.90;8.20;;;27.50;99.90;;;;;;5054702;28;20171;-68
2022/06/25 06:36:46;;;;;;;9.30;8.40;;;28.00;99.90;;;;;;5054126;28;20159;-68
2022/06/25 06:39:12;;;;;;;9.13;8.37;;;27.70;99.90;;;;;;5054252;28;20527;-68
2022/06/25 06:41:38;;;;;;;7.63;7.03;;;27.30;99.90;;;;;;5035932;28;20202;-68
2022/06/25 06:44:04;;;;;;;8.87;8.07;;;26.80;99.90;;;;;;5054024;28;20203;-67
2022/06/25 06:46:30;;;;;;;10.17;9.27;;;27.40;99.90;;;;;;5019740;28;20193;-67
2022/06/25 06:48:55;;;;;;;10.13;9.23;;;28.30;99.90;;;;;;5054271;28;20181;-68
2022/06/25 06:51:21;;;;;;;9.60;8.73;;;28.30;99.90;;;;;;5054043;28;20285;-69
2022/06/25 06:53:46;;;;;;;9.53;8.83;;;29.80;99.90;;;;;;5036404;28;20171;-69
2022/06/25 06:56:12;;;;;;;9.47;8.63;;;30.00;99.90;;;;;;5053769;28;20166;-67
2022/06/25 06:58:38;;;;;;;10.30;9.50;;;29.60;99.90;;;;;;5035114;28;20298;-67
2022/06/25 07:01:04;;;;;;;9.60;8.70;;;29.50;99.90;;;;;;5053696;28;20214;-67
2022/06/25 07:03:29;;;;;;;10.33;9.43;;;29.20;99.90;;;;;;5019493;28;20175;-67
2022/06/25 07:05:55;;;;;;;10.63;9.73;;;28.70;99.90;;;;;;5053918;28;20695;-68
2022/06/25 07:08:21;;;;;;;9.53;8.80;;;28.10;99.90;;;;;;5053617;28;20663;-68
2022/06/25 07:10:47;;;;;;;10.00;9.20;;;28.10;99.90;;;;;;5053566;28;20475;-68
2022/06/25 07:13:12;;;;;;;10.63;9.63;;;28.00;99.90;;;;;;5053698;28;20186;-69
2022/06/25 07:15:39;;;;;;;10.80;9.90;;;27.70;99.90;;;;;;5035846;28;20526;-68
2022/06/25 07:18:05;;;;;;;11.77;10.70;;;27.80;99.90;;;;;;5035853;28;20262;-68
2022/06/25 07:20:31;;;;;;;10.93;9.93;;;27.60;99.90;;;;;;5053444;28;20433;-68
2022/06/25 07:22:56;;;;;;;11.97;10.97;;;27.50;99.90;;;;;;5053597;28;20567;-68
2022/06/25 07:25:22;;;;;;;12.63;11.53;;;27.10;99.90;;;;;;5053178;28;20163;-68
2022/06/25 07:27:48;;;;;;;13.07;11.77;;;27.20;99.90;;;;;;5053550;28;20167;-68
2022/06/25 07:30:14;;;;;;;11.43;10.37;;;26.90;99.90;;;;;;5053287;28;20169;-68
2022/06/25 07:32:40;;;;;;;12.63;10.97;;;27.00;99.90;;;;;;5053558;28;20167;-69
2022/06/25 07:35:06;;;;;;;12.63;11.33;;;26.80;99.90;;;;;;5052861;28;20419;-69
2022/06/25 07:37:32;;;;;;;13.63;12.53;;;26.80;99.90;;;;;;5018681;28;20648;-69
2022/06/25 07:39:58;;;;;;;12.97;11.77;;;26.90;99.90;;;;;;5052855;28;20551;-68
2022/06/25 07:42:23;;;;;;;12.10;10.90;;;27.00;99.90;;;;;;5053012;28;20528;-68
2022/06/25 07:44:49;;;;;;;11.53;10.43;;;27.00;99.90;;;;;;5034920;28;20183;-68
2022/06/25 07:47:15;;;;;;;12.57;11.47;;;27.30;99.90;;;;;;5053367;28;20167;-68
2022/06/25 07:52:26;;;;;;;14.00;12.43;;;27.30;99.90;;;;;;5053324;28;20775;-68
2022/06/25 07:54:52;;;;;;;12.50;11.40;;;27.30;99.90;;;;;;5035032;28;20409;-68
2022/06/25 07:57:17;;;;;;;11.80;10.70;;;27.70;99.90;;;;;;5053294;28;20581;-67
2022/06/25 07:59:43;;;;;;;12.53;11.37;;;27.60;99.90;;;;;;5052856;28;20258;-68
2022/06/25 08:02:09;;;;;;;12.97;11.77;;;28.10;99.90;;;;;;5052446;28;20237;-69
2022/06/25 08:04:34;;;;;;;12.60;11.60;;;28.20;99.90;;;;;;5034487;28;20688;-69
2022/06/25 08:07:00;;;;;;;11.80;10.70;;;28.00;99.90;;;;;;5052517;28;20181;-68
2022/06/25 08:09:26;;;;;;;10.80;9.90;;;28.50;99.90;;;;;;5051628;28;20469;-69
2022/06/25 08:11:51;;;;;;;10.10;9.30;;;29.20;99.90;;;;;;5052536;28;20736;-69
2022/06/25 08:14:17;;;;;;;10.37;9.47;;;30.60;99.90;;;;;;5052767;28;20184;-67
2022/06/25 08:16:43;;;;;;;12.70;11.60;;;30.80;99.90;;;;;;5034722;28;20167;-68
2022/06/25 08:19:08;;;;;;;11.57;10.53;;;31.20;99.90;;;;;;5052818;28;20167;-68
2022/06/25 08:21:34;;;;;;;10.70;9.77;;;30.90;99.90;;;;;;5052299;28;20191;-68
2022/06/25 08:23:59;;;;;;;10.50;9.60;;;30.50;99.90;;;;;;5052582;28;20178;-68
2022/06/25 08:26:25;;;;;;;12.93;10.07;;;30.80;99.90;;;;;;5052305;28;20253;-68
2022/06/25 08:28:50;;;;;;;10.43;9.43;;;29.70;99.90;;;;;;5052427;28;20174;-68
2022/06/25 08:31:16;;;;;;;10.90;9.80;;;29.60;99.90;;;;;;5052228;28;20337;-68
2022/06/25 08:33:42;;;;;;;10.20;9.37;;;29.30;99.90;;;;;;5052153;28;20159;-68
2022/06/25 08:36:07;;;;;;;10.43;9.53;;;29.70;99.90;;;;;;5051970;28;20263;-68
2022/06/25 08:38:34;;;;;;;9.20;8.50;;;29.90;99.90;;;;;;5052577;28;20167;-68
2022/06/25 08:41:00;;;;;;;10.83;9.87;;;29.50;99.90;;;;;;5034532;28;20596;-68
2022/06/25 08:43:26;;;;;;;9.33;8.63;;;29.60;99.90;;;;;;5052105;28;20483;-67
2022/06/25 08:45:55;;;;;;;9.97;9.03;;;29.50;99.90;;;;;;5034399;28;20406;-68
2022/06/25 08:48:22;;;;;;;9.70;8.77;;;29.10;99.90;;;;;;5052179;28;20467;-68
2022/06/25 08:50:49;;;;;;;8.60;7.77;;;29.20;99.90;;;;;;5051913;28;20453;-68
2022/06/25 08:53:15;;;;;;;10.70;9.70;;;28.30;99.90;;;;;;5034324;28;20451;-68
2022/06/25 08:55:43;;;;;;;9.07;8.37;;;28.00;99.90;;;;;;5052215;28;20405;-68
2022/06/25 08:58:09;;;;;;;10.17;9.37;;;28.50;99.90;;;;;;5052373;28;20485;-68
2022/06/25 09:00:39;;;;;;;10.70;8.73;;;28.60;99.90;;;;;;5051877;28;20472;-68
2022/06/25 09:03:06;;;;;;;10.00;9.20;;;28.70;99.90;;;;;;5051966;28;20170;-68
2022/06/25 09:05:34;;;;;;;8.77;7.90;;;28.90;99.90;;;;;;5051412;28;20405;-68
2022/06/25 09:08:02;;;;;;;9.73;8.83;;;28.30;99.90;;;;;;5051897;28;20413;-68
2022/06/25 09:10:29;;;;;;;8.97;8.13;;;28.00;99.90;;;;;;5051890;28;20472;-68
2022/06/25 09:13:04;;;;;;;9.47;8.67;;;27.70;99.90;;;;;;5051979;28;20401;-68
2022/06/25 09:15:39;;;;;;;9.23;8.33;;;28.00;99.90;;;;;;5051847;28;20430;-68
2022/06/25 09:18:09;;;;;;;9.87;9.07;;;28.60;99.90;;;;;;5052025;28;20422;-68
2022/06/25 09:20:53;;;;;;;9.13;8.33;;;28.30;99.90;;;;;;5051206;28;20429;-68
2022/06/25 09:23:19;;;;;;;8.27;7.57;;;27.90;99.90;;;;;;5051622;28;20412;-67
2022/06/25 09:25:44;;;;;;;8.30;7.60;;;28.20;99.90;;;;;;5051356;28;20784;-67
2022/06/25 09:28:28;;;;;;;8.90;8.10;;;28.10;99.90;;;;;;5033678;28;20565;-67
2022/06/25 09:30:53;;;;;;;8.23;7.53;;;27.30;99.90;;;;;;5034031;28;20210;-67
2022/06/25 09:33:19;;;;;;;9.47;8.53;;;27.20;99.90;;;;;;5051831;28;20409;-67
2022/06/25 09:35:51;;;;;;;9.17;8.23;;;27.60;99.90;;;;;;5051529;28;20171;-67
2022/06/25 09:38:17;;;;;;;9.13;8.23;;;27.90;99.90;;;;;;5052364;28;20166;-67
2022/06/25 09:40:54;;;;;;;8.13;7.43;;;28.40;99.90;;;;;;5051821;28;20837;-67
2022/06/25 09:43:22;;;;;;;9.53;8.50;;;28.70;99.90;;;;;;5052487;28;20492;-67
2022/06/25 09:45:50;;;;;;;7.73;7.03;;;29.30;99.90;;;;;;5051340;28;20401;-68
2022/06/25 09:48:27;;;;;;;8.63;7.93;;;29.10;99.90;;;;;;5051384;28;20413;-68
2022/06/25 09:51:15;;;;;;;8.23;7.60;;;29.00;99.90;;;;;;5051081;28;20484;-68
2022/06/25 09:53:50;;;;;;;8.47;7.77;;;29.10;99.90;;;;;;5051156;28;20973;-68
2022/06/25 09:56:19;;;;;;;9.00;7.97;;;29.60;99.90;;;;;;5051055;28;20425;-68
2022/06/25 09:58:46;;;;;;;8.80;7.90;;;28.70;99.90;;;;;;5051080;28;20417;-68
2022/06/25 10:01:16;;;;;;;7.30;6.70;;;29.10;99.90;;;;;;5051368;28;20441;-68
2022/06/25 10:03:42;;;;;;;8.20;7.50;;;29.20;99.90;;;;;;5051080;28;20480;-68
2022/06/25 10:06:08;;;;;;;9.17;7.70;;;29.00;99.90;;;;;;5051195;28;20903;-68
2022/06/25 10:08:35;;;;;;;8.53;7.73;;;28.20;99.90;;;;;;5051172;28;20440;-68
2022/06/25 10:11:03;;;;;;;7.10;6.50;;;28.00;99.90;;;;;;5051079;28;20453;-68
2022/06/25 10:13:29;;;;;;;7.57;6.47;;;27.80;99.90;;;;;;5050998;28;20406;-68
2022/06/25 10:15:56;;;;;;;6.17;5.47;;;28.40;99.90;;;;;;5050981;28;20416;-67
2022/06/25 10:18:22;;;;;;;6.20;5.67;;;28.40;99.90;;;;;;5051189;28;20163;-67
2022/06/25 10:20:48;;;;;;;7.20;6.50;;;28.60;99.90;;;;;;5051025;28;20425;-67
2022/06/25 10:23:15;;;;;;;6.30;5.70;;;28.50;99.90;;;;;;5050923;28;20934;-67
2022/06/25 10:25:42;;;;;;;6.27;5.67;;;28.50;99.90;;;;;;5050442;28;20224;-68
2022/06/25 10:28:16;;;;;;;6.37;5.87;;;28.30;99.90;;;;;;5050830;28;20416;-67
2022/06/25 10:30:50;;;;;;;6.33;5.77;;;28.10;99.90;;;;;;5050607;28;20591;-68
2022/06/25 10:33:21;;;;;;;8.07;6.50;;;28.00;99.90;;;;;;5052796;28;20401;-68
2022/06/25 10:35:48;;;;;;;5.90;5.40;;;28.50;99.90;;;;;;5054445;28;20409;-68
2022/06/25 10:38:22;;;;;;;6.50;6.00;;;28.60;99.90;;;;;;5054280;28;20458;-68
2022/06/25 10:40:53;;;;;;;5.27;4.87;;;28.50;99.90;;;;;;5054176;28;20425;-68
2022/06/25 10:43:46;;;;;;;6.13;5.63;;;27.90;99.90;;;;;;5054233;28;20409;-68
2022/06/25 10:46:31;;;;;;;6.30;5.80;;;28.30;99.90;;;;;;5054137;28;20420;-68
2022/06/25 10:49:10;;;;;;;6.33;5.77;;;28.00;99.90;;;;;;5054639;28;20429;-68
2022/06/25 10:51:47;;;;;;;4.83;4.43;;;28.20;99.90;;;;;;5053896;28;20457;-68
2022/06/25 10:54:27;;;;;;;5.10;4.60;;;27.80;99.90;;;;;;5054215;28;20805;-68
2022/06/25 10:56:58;;;;;;;5.40;5.00;;;28.00;99.90;;;;;;5054160;28;20468;-68
2022/06/25 10:59:37;;;;;;;5.70;5.20;;;28.40;99.90;;;;;;5035919;28;21003;-68
2022/06/25 11:02:07;;;;;;;5.53;5.10;;;28.50;99.90;;;;;;5053523;28;20449;-69
2022/06/25 11:04:34;;;;;;;4.90;4.50;;;28.70;99.90;;;;;;5053814;28;20405;-68
2022/06/25 11:07:32;;;;;;;5.20;4.80;;;28.30;99.90;;;;;;5053781;28;20843;-68
2022/06/25 11:10:02;;;;;;;5.80;5.40;;;28.10;99.90;;;;;;4999235;28;20449;-68
2022/06/25 11:12:30;;;;;;;4.23;3.93;;;27.80;99.90;;;;;;5053291;28;20465;-68
2022/06/25 11:15:13;;;;;;;4.57;4.13;;;27.50;99.90;;;;;;5035591;28;20414;-68
2022/06/25 11:17:39;;;;;;;4.50;4.10;;;27.90;99.90;;;;;;5053583;28;20402;-68
2022/06/25 11:20:09;;;;;;;6.67;6.10;;;27.70;99.90;;;;;;5053916;28;20393;-68
2022/06/25 11:22:45;;;;;;;5.53;5.03;;;27.60;99.90;;;;;;5053708;28;20446;-68
2022/06/25 11:30:40;;;;;;;6.23;5.60;;;27.20;99.90;;;;;;5053556;28;20459;-68
2022/06/25 11:33:09;;;;;;;6.47;5.97;;;27.10;99.90;;;;;;5053334;28;20413;-68
2022/06/25 11:35:44;;;;;;;6.33;5.73;;;27.00;99.90;;;;;;5053476;28;20165;-67
2022/06/25 11:38:19;;;;;;;6.87;6.27;;;26.80;99.90;;;;;;5053387;28;20414;-67
2022/06/25 11:40:44;;;;;;;6.43;5.67;;;27.10;99.90;;;;;;5053385;28;20799;-67
2022/06/25 11:43:12;;;;;;;5.53;5.00;;;27.70;99.90;;;;;;5053172;28;20413;-68
2022/06/25 11:45:51;;;;;;;5.30;4.90;;;27.60;99.90;;;;;;5053192;28;20273;-68
2022/06/25 11:48:17;;;;;;;5.63;5.10;;;27.60;99.90;;;;;;5053421;28;20416;-69
2022/06/25 11:50:43;;;;;;;5.50;5.00;;;27.60;99.90;;;;;;5053372;28;20496;-68
2022/06/25 11:53:09;;;;;;;5.63;5.20;;;27.60;99.90;;;;;;5053170;28;20170;-68
2022/06/25 11:55:37;;;;;;;5.83;5.33;;;27.50;99.90;;;;;;5052949;28;20223;-68
2022/06/25 11:58:03;;;;;;;6.43;5.97;;;27.40;99.90;;;;;;5053169;28;20401;-68
2022/06/25 12:00:29;;;;;;;5.87;5.47;;;27.60;99.90;;;;;;5052824;28;20949;-68
2022/06/25 12:03:02;;;;;;;5.20;4.80;;;28.00;99.90;;;;;;5072589;23;20215;-68
2022/06/25 12:05:28;;;;;;;5.83;5.23;;;27.70;99.90;;;;;;5033444;28;20414;-68
2022/06/25 12:07:56;;;;;;;6.43;5.87;;;27.70;99.90;;;;;;5033615;28;20394;-69
2022/06/25 12:10:22;;;;;;;6.50;5.93;;;28.00;99.90;;;;;;5033607;28;20225;-69
2022/06/25 12:12:48;;;;;;;6.60;6.10;;;28.30;99.90;;;;;;5038110;28;20418;-69
2022/06/25 12:15:15;;;;;;;5.20;4.83;;;28.70;99.90;;;;;;5033469;28;20487;-69
2022/06/25 12:17:43;;;;;;;5.93;5.50;;;28.70;99.90;;;;;;5033407;28;20440;-69
2022/06/25 12:20:09;;;;;;;6.10;5.60;;;28.50;99.90;;;;;;5033111;28;20840;-68
2022/06/25 12:22:46;;;;;;;7.30;6.60;;;28.20;99.90;;;;;;5032659;28;20488;-68
2022/06/25 12:25:21;;;;;;;6.27;5.77;;;28.30;99.90;;;;;;5032544;28;20463;-68
2022/06/25 12:27:48;;;;;;;7.33;6.83;;;28.70;99.90;;;;;;5032815;28;20422;-68
2022/06/25 12:30:40;;;;;;;7.00;6.03;;;29.00;99.90;;;;;;5014979;28;20453;-68
2022/06/25 12:33:13;;;;;;;6.23;5.73;;;29.00;99.90;;;;;;5032100;28;20441;-68
2022/06/25 12:35:48;;;;;;;6.93;6.30;;;28.90;99.90;;;;;;5033660;28;20492;-69
2022/06/25 12:38:15;;;;;;;7.23;6.53;;;28.90;99.90;;;;;;5034698;28;20881;-69
2022/06/25 12:40:48;;;;;;;6.03;5.47;;;29.00;99.90;;;;;;5033397;28;20417;-69
2022/06/25 12:43:15;;;;;;;6.00;5.60;;;29.30;99.90;;;;;;5032336;28;20932;-69
2022/06/25 12:45:44;;;;;;;6.23;5.73;;;29.40;99.90;;;;;;5032285;28;20410;-69
2022/06/25 12:48:11;;;;;;;6.73;6.23;;;29.40;99.90;;;;;;5032354;28;20874;-69
2022/06/25 12:50:39;;;;;;;7.77;7.07;;;29.20;99.90;;;;;;5032500;28;20458;-69
2022/06/25 12:53:16;;;;;;;7.23;6.60;;;29.50;99.90;;;;;;5032539;28;20437;-69